Time;durP1;ratioP1;P1;durP2;ratioP2;P2;SDS_P1;SDS_P2;PMS_P1;PMS_P2;Temp;Humidity;BMP_temperature;BMP_pressure;BME280_temperature;BME280_humidity;BME280_pressure;Samples;Min_cycle;Max_cycle;Signal;HPM_P1;HPM_P2
2023/12/12 00:01:04;;;;;;;10.02;2.13;;;;;;;;;;5028020;28;20043;-77
2023/12/12 00:03:30;;;;;;;13.75;2.60;;;;;;;;;;5026180;28;20059;-77
2023/12/12 00:05:56;;;;;;;13.57;2.90;;;;;;;;;;5031157;28;20032;-76
2023/12/12 00:08:22;;;;;;;11.73;2.42;;;;;;;;;;5028272;28;20587;-77
2023/12/12 00:10:48;;;;;;;10.70;2.25;;;;;;;;;;5030578;28;20036;-76
2023/12/12 00:13:15;;;;;;;11.63;2.45;;;;;;;;;;5027735;28;20258;-78
2023/12/12 00:15:41;;;;;;;12.52;3.05;;;;;;;;;;5029287;28;20349;-78
2023/12/12 00:18:07;;;;;;;10.25;2.45;;;;;;;;;;5025908;28;20119;-77
2023/12/12 00:20:33;;;;;;;13.38;2.80;;;;;;;;;;5030130;28;20472;-78
2023/12/12 00:22:59;;;;;;;10.48;3.10;;;;;;;;;;5028777;28;20740;-78
2023/12/12 00:25:25;;;;;;;16.35;3.35;;;;;;;;;;5029239;28;20032;-78
2023/12/12 00:27:52;;;;;;;7.93;2.40;;;;;;;;;;5024842;28;20538;-77
2023/12/12 00:30:18;;;;;;;17.35;4.00;;;;;;;;;;5030696;28;20024;-77
2023/12/12 00:32:44;;;;;;;12.02;3.90;;;;;;;;;;5027534;28;20041;-77
2023/12/12 00:35:10;;;;;;;13.93;3.50;;;;;;;;;;5031597;28;20036;-77
2023/12/12 00:37:36;;;;;;;19.70;4.22;;;;;;;;;;5029746;28;20032;-77
2023/12/12 00:40:02;;;;;;;16.00;3.42;;;;;;;;;;5028845;28;20036;-78
2023/12/12 00:42:28;;;;;;;11.30;3.40;;;;;;;;;;5021114;28;20032;-77
2023/12/12 00:44:54;;;;;;;12.88;3.60;;;;;;;;;;4993027;28;20040;-77
2023/12/12 00:47:20;;;;;;;13.07;3.72;;;;;;;;;;5029826;28;20105;-77
2023/12/12 00:49:46;;;;;;;18.75;5.28;;;;;;;;;;5023364;28;20028;-77
2023/12/12 00:52:12;;;;;;;13.65;4.20;;;;;;;;;;5034227;28;20587;-77
2023/12/12 00:54:38;;;;;;;13.48;3.67;;;;;;;;;;5031523;28;20031;-78
2023/12/12 00:57:04;;;;;;;14.63;4.22;;;;;;;;;;5029284;28;20090;-77
2023/12/12 00:59:30;;;;;;;17.42;4.65;;;;;;;;;;5028523;28;20028;-78
2023/12/12 01:01:56;;;;;;;16.95;4.43;;;;;;;;;;5027143;28;20154;-77
2023/12/12 01:04:22;;;;;;;16.55;5.03;;;;;;;;;;5025744;28;20392;-78
2023/12/12 01:06:48;;;;;;;16.58;4.57;;;;;;;;;;5029532;28;20511;-77
2023/12/12 01:09:15;;;;;;;16.55;4.60;;;;;;;;;;5027724;28;20036;-78
2023/12/12 01:11:41;;;;;;;12.32;4.93;;;;;;;;;;5029160;28;20036;-78
2023/12/12 01:14:07;;;;;;;14.27;4.68;;;;;;;;;;5019457;28;20295;-78
2023/12/12 01:16:33;;;;;;;11.57;4.63;;;;;;;;;;5028604;28;20197;-77
2023/12/12 01:19:00;;;;;;;19.02;5.90;;;;;;;;;;5019675;28;20047;-78
2023/12/12 01:21:26;;;;;;;17.98;6.82;;;;;;;;;;5030513;28;20052;-77
2023/12/12 01:23:53;;;;;;;13.13;5.28;;;;;;;;;;5027916;28;20048;-77
2023/12/12 01:26:20;;;;;;;15.40;5.22;;;;;;;;;;5029418;28;20040;-78
2023/12/12 01:28:46;;;;;;;13.88;5.13;;;;;;;;;;5027184;28;20191;-77
2023/12/12 01:31:12;;;;;;;15.20;4.75;;;;;;;;;;5029220;28;20041;-77
2023/12/12 01:33:40;;;;;;;16.63;4.72;;;;;;;;;;5020652;28;20487;-77
2023/12/12 01:36:06;;;;;;;17.98;4.60;;;;;;;;;;5025936;28;20384;-77
2023/12/12 01:38:32;;;;;;;15.65;4.88;;;;;;;;;;5027929;28;20060;-77
2023/12/12 01:40:58;;;;;;;14.93;4.90;;;;;;;;;;5031455;28;20313;-77
2023/12/12 01:43:26;;;;;;;15.82;4.60;;;;;;;;;;4980969;28;20276;-77
2023/12/12 01:45:54;;;;;;;14.23;4.63;;;;;;;;;;5027836;28;20033;-77
2023/12/12 01:48:21;;;;;;;16.70;4.85;;;;;;;;;;5025161;28;20540;-78
2023/12/12 01:50:47;;;;;;;15.07;4.38;;;;;;;;;;5025768;28;20052;-77
2023/12/12 01:53:14;;;;;;;13.63;4.32;;;;;;;;;;5023710;28;20045;-77
2023/12/12 01:55:41;;;;;;;11.90;3.83;;;;;;;;;;5027916;28;20028;-77
2023/12/12 01:58:07;;;;;;;14.85;4.80;;;;;;;;;;5030202;28;20032;-77
2023/12/12 02:00:33;;;;;;;18.15;4.05;;;;;;;;;;5022837;28;20040;-77
2023/12/12 02:02:59;;;;;;;19.23;4.45;;;;;;;;;;5028128;28;20033;-78
2023/12/12 02:05:26;;;;;;;16.75;3.45;;;;;;;;;;5028520;28;20029;-78
2023/12/12 02:07:53;;;;;;;19.70;4.00;;;;;;;;;;5026328;28;20036;-78
2023/12/12 02:10:19;;;;;;;20.83;5.05;;;;;;;;;;5029530;28;20035;-78
2023/12/12 02:12:45;;;;;;;13.82;3.90;;;;;;;;;;5021898;28;20577;-77
2023/12/12 02:15:11;;;;;;;17.15;3.70;;;;;;;;;;5024358;28;20048;-77
2023/12/12 02:17:37;;;;;;;15.15;3.80;;;;;;;;;;5023685;28;20091;-77
2023/12/12 02:20:03;;;;;;;14.88;3.78;;;;;;;;;;5029946;28;20521;-77
2023/12/12 02:22:29;;;;;;;13.65;4.43;;;;;;;;;;5033165;28;20393;-78
2023/12/12 02:24:55;;;;;;;14.95;3.60;;;;;;;;;;5032216;28;20134;-77
2023/12/12 02:27:22;;;;;;;16.15;4.80;;;;;;;;;;5035690;28;20271;-77
2023/12/12 02:29:48;;;;;;;13.63;3.20;;;;;;;;;;5028745;28;20033;-78
2023/12/12 02:32:14;;;;;;;16.83;4.70;;;;;;;;;;5028125;28;20145;-77
2023/12/12 02:34:41;;;;;;;14.93;3.67;;;;;;;;;;5029220;28;20048;-78
2023/12/12 02:37:07;;;;;;;17.08;3.75;;;;;;;;;;5029587;28;20033;-78
2023/12/12 02:39:33;;;;;;;15.98;3.85;;;;;;;;;;5031516;28;20180;-77
2023/12/12 02:41:59;;;;;;;13.27;3.85;;;;;;;;;;5030425;28;20107;-77
2023/12/12 02:44:25;;;;;;;18.13;4.97;;;;;;;;;;4987667;28;20870;-78
2023/12/12 02:46:51;;;;;;;21.75;4.57;;;;;;;;;;5029628;28;20032;-77
2023/12/12 02:49:17;;;;;;;18.45;4.00;;;;;;;;;;5028736;28;20449;-77
2023/12/12 02:51:43;;;;;;;13.73;3.30;;;;;;;;;;5031980;28;20643;-78
2023/12/12 02:54:09;;;;;;;13.60;4.10;;;;;;;;;;5031053;28;20040;-78
2023/12/12 02:56:35;;;;;;;15.70;3.63;;;;;;;;;;5033540;28;20041;-77
2023/12/12 02:59:01;;;;;;;16.35;4.25;;;;;;;;;;5027490;28;20289;-78
2023/12/12 03:01:27;;;;;;;13.75;3.72;;;;;;;;;;5030216;28;20099;-77
2023/12/12 03:03:54;;;;;;;16.23;3.47;;;;;;;;;;5023166;28;20032;-77
2023/12/12 03:06:20;;;;;;;18.23;4.30;;;;;;;;;;5033308;28;20036;-78
2023/12/12 03:08:46;;;;;;;20.17;4.15;;;;;;;;;;5024732;28;20033;-78
2023/12/12 03:11:12;;;;;;;23.67;4.50;;;;;;;;;;5031325;28;20121;-77
2023/12/12 03:13:38;;;;;;;17.65;3.83;;;;;;;;;;5034110;28;20056;-79
2023/12/12 03:16:04;;;;;;;17.92;3.30;;;;;;;;;;5027466;28;20555;-77
2023/12/12 03:18:30;;;;;;;17.17;4.43;;;;;;;;;;5027582;28;20095;-77
2023/12/12 03:20:56;;;;;;;19.45;4.82;;;;;;;;;;5026860;28;20067;-76
2023/12/12 03:23:22;;;;;;;16.10;5.18;;;;;;;;;;5031856;28;20515;-77
2023/12/12 03:25:48;;;;;;;15.05;3.22;;;;;;;;;;5029950;28;20040;-77
2023/12/12 03:28:14;;;;;;;13.23;3.70;;;;;;;;;;5035846;28;20040;-77
2023/12/12 03:30:41;;;;;;;18.92;3.60;;;;;;;;;;5033539;28;20289;-77
2023/12/12 03:33:07;;;;;;;16.85;3.80;;;;;;;;;;5024827;28;20072;-77
2023/12/12 03:35:33;;;;;;;20.73;4.07;;;;;;;;;;5028255;28;20588;-78
2023/12/12 03:37:59;;;;;;;14.13;3.40;;;;;;;;;;5020083;28;20371;-77
2023/12/12 03:40:25;;;;;;;17.70;3.15;;;;;;;;;;5029220;28;20489;-77
2023/12/12 03:42:51;;;;;;;17.48;4.22;;;;;;;;;;4987727;28;20167;-76
2023/12/12 03:45:17;;;;;;;18.67;3.30;;;;;;;;;;5033225;28;20040;-77
2023/12/12 03:47:44;;;;;;;14.80;3.33;;;;;;;;;;5032125;28;20033;-76
2023/12/12 03:50:10;;;;;;;14.60;3.58;;;;;;;;;;5032465;28;20565;-77
2023/12/12 03:52:36;;;;;;;19.25;3.33;;;;;;;;;;5027954;28;20213;-77
2023/12/12 03:55:02;;;;;;;18.17;3.63;;;;;;;;;;5021846;28;20041;-78
2023/12/12 03:57:28;;;;;;;21.13;6.13;;;;;;;;;;5031990;28;20116;-77
2023/12/12 03:59:54;;;;;;;15.68;3.92;;;;;;;;;;5026431;28;20048;-76
2023/12/12 04:02:20;;;;;;;14.57;3.00;;;;;;;;;;5030603;28;20091;-77
2023/12/12 04:04:46;;;;;;;13.60;3.25;;;;;;;;;;5029306;28;20509;-77
2023/12/12 04:07:12;;;;;;;17.48;3.88;;;;;;;;;;5034598;28;20647;-76
2023/12/12 04:09:38;;;;;;;21.00;3.72;;;;;;;;;;5031207;28;20068;-78
2023/12/12 04:12:05;;;;;;;19.65;5.65;;;;;;;;;;5029362;28;20124;-78
2023/12/12 04:14:31;;;;;;;14.65;3.65;;;;;;;;;;5034888;28;20097;-78
2023/12/12 04:16:57;;;;;;;16.80;3.65;;;;;;;;;;5028536;28;20063;-78
2023/12/12 04:19:23;;;;;;;17.67;4.55;;;;;;;;;;5031032;28;20051;-78
2023/12/12 04:21:49;;;;;;;17.63;4.97;;;;;;;;;;5031108;28;20098;-78
2023/12/12 04:24:15;;;;;;;19.33;4.55;;;;;;;;;;5031979;28;20041;-78
2023/12/12 04:26:41;;;;;;;16.92;4.10;;;;;;;;;;5032367;28;20131;-78
2023/12/12 04:29:07;;;;;;;16.67;4.60;;;;;;;;;;5029474;28;20549;-77
2023/12/12 04:31:34;;;;;;;20.45;4.05;;;;;;;;;;5030102;28;20055;-78
2023/12/12 04:34:00;;;;;;;18.08;4.30;;;;;;;;;;5025740;28;20283;-80
2023/12/12 04:36:26;;;;;;;18.20;3.55;;;;;;;;;;5042844;28;20039;-78
2023/12/12 04:38:52;;;;;;;23.92;4.13;;;;;;;;;;5045839;28;20692;-78
2023/12/12 04:41:18;;;;;;;13.80;3.17;;;;;;;;;;5032322;28;20629;-78
2023/12/12 04:43:44;;;;;;;14.60;4.07;;;;;;;;;;4996250;28;20029;-78
2023/12/12 04:46:17;;;;;;;17.75;4.18;;;;;;;;;;5047374;28;20036;-77
2023/12/12 04:48:43;;;;;;;15.55;3.90;;;;;;;;;;5038435;28;20216;-77
2023/12/12 04:51:09;;;;;;;16.42;3.78;;;;;;;;;;5051466;28;20052;-78
2023/12/12 04:53:35;;;;;;;12.77;3.25;;;;;;;;;;5041185;28;20052;-78
2023/12/12 04:56:01;;;;;;;14.40;3.47;;;;;;;;;;5031799;28;20446;-78
2023/12/12 04:58:27;;;;;;;11.57;3.50;;;;;;;;;;5031559;28;20060;-78
2023/12/12 05:00:53;;;;;;;21.15;4.82;;;;;;;;;;5034084;28;20134;-78
2023/12/12 05:03:20;;;;;;;14.10;3.85;;;;;;;;;;5030042;28;20036;-78
2023/12/12 05:05:47;;;;;;;17.70;4.57;;;;;;;;;;5029172;28;20028;-78
2023/12/12 05:08:13;;;;;;;16.73;3.80;;;;;;;;;;5027272;28;20451;-78
2023/12/12 05:10:39;;;;;;;14.82;3.35;;;;;;;;;;5032427;28;20117;-78
2023/12/12 05:13:06;;;;;;;17.02;3.55;;;;;;;;;;5027440;28;20080;-78
2023/12/12 05:15:32;;;;;;;12.88;3.60;;;;;;;;;;5028316;28;20025;-78
2023/12/12 05:17:58;;;;;;;15.55;3.55;;;;;;;;;;5030667;28;20297;-78
2023/12/12 05:20:24;;;;;;;16.23;3.08;;;;;;;;;;5029872;28;20110;-78
2023/12/12 05:22:50;;;;;;;22.30;3.85;;;;;;;;;;5025730;28;20387;-78
2023/12/12 05:25:16;;;;;;;18.25;5.10;;;;;;;;;;5026520;28;20303;-79
2023/12/12 05:27:42;;;;;;;17.33;3.55;;;;;;;;;;5037285;28;20072;-78
2023/12/12 05:30:09;;;;;;;15.40;3.72;;;;;;;;;;5026465;28;20043;-78
2023/12/12 05:32:35;;;;;;;12.75;3.00;;;;;;;;;;5031717;28;20051;-78
2023/12/12 05:35:01;;;;;;;14.32;3.40;;;;;;;;;;5030365;28;20109;-78
2023/12/12 05:37:27;;;;;;;21.20;4.65;;;;;;;;;;5030699;28;20063;-78
2023/12/12 05:39:53;;;;;;;20.38;4.25;;;;;;;;;;5029716;28;20084;-79
2023/12/12 05:42:19;;;;;;;18.65;3.63;;;;;;;;;;5030500;28;20609;-79
2023/12/12 05:44:45;;;;;;;18.88;4.07;;;;;;;;;;4984256;28;20037;-79
2023/12/12 05:47:11;;;;;;;18.20;4.07;;;;;;;;;;5029300;28;20194;-79
2023/12/12 05:49:37;;;;;;;20.70;4.07;;;;;;;;;;5029745;28;20036;-80
2023/12/12 05:52:04;;;;;;;17.80;3.85;;;;;;;;;;5029216;28;20305;-79
2023/12/12 05:54:30;;;;;;;22.30;3.75;;;;;;;;;;5029466;28;20502;-79
2023/12/12 05:56:56;;;;;;;18.95;3.92;;;;;;;;;;5038946;28;20041;-79
2023/12/12 05:59:22;;;;;;;21.08;4.38;;;;;;;;;;5036962;28;20458;-79
2023/12/12 06:01:48;;;;;;;13.80;3.13;;;;;;;;;;5035825;28;20029;-79
2023/12/12 06:04:14;;;;;;;20.73;4.20;;;;;;;;;;5034390;28;20303;-79
2023/12/12 06:06:42;;;;;;;22.25;4.53;;;;;;;;;;5034174;28;20032;-79
2023/12/12 06:09:09;;;;;;;13.65;3.15;;;;;;;;;;5029098;28;20280;-79
2023/12/12 06:11:36;;;;;;;12.65;4.00;;;;;;;;;;5038119;28;20048;-79
2023/12/12 06:14:03;;;;;;;20.88;3.70;;;;;;;;;;5033381;28;20041;-79
2023/12/12 06:16:29;;;;;;;14.60;2.80;;;;;;;;;;5033678;28;20020;-78
2023/12/12 06:18:55;;;;;;;23.05;4.32;;;;;;;;;;5032483;28;20037;-78
2023/12/12 06:21:22;;;;;;;17.05;3.45;;;;;;;;;;5034338;28;20036;-78
2023/12/12 06:23:48;;;;;;;16.40;2.92;;;;;;;;;;5030264;28;20098;-78
2023/12/12 06:26:15;;;;;;;19.42;4.57;;;;;;;;;;5030738;28;20092;-79
2023/12/12 06:28:41;;;;;;;20.77;4.00;;;;;;;;;;5027656;28;20538;-78
2023/12/12 06:31:07;;;;;;;16.92;4.63;;;;;;;;;;5028927;28;20146;-79
2023/12/12 06:33:34;;;;;;;23.42;4.43;;;;;;;;;;5030018;28;20131;-78
2023/12/12 06:36:00;;;;;;;17.25;3.30;;;;;;;;;;5033659;28;20156;-79
2023/12/12 06:38:26;;;;;;;25.45;4.18;;;;;;;;;;5027683;28;20590;-78
2023/12/12 06:40:52;;;;;;;24.10;3.70;;;;;;;;;;5030683;28;20033;-79
2023/12/12 06:43:18;;;;;;;18.85;3.80;;;;;;;;;;4995616;28;20397;-78
2023/12/12 06:45:44;;;;;;;15.65;3.25;;;;;;;;;;5018930;28;20028;-78
2023/12/12 06:48:12;;;;;;;18.02;3.58;;;;;;;;;;5026216;28;20041;-78
2023/12/12 06:50:38;;;;;;;15.68;3.22;;;;;;;;;;5031812;28;20035;-78
2023/12/12 06:53:04;;;;;;;16.52;2.83;;;;;;;;;;5029341;28;20040;-78
2023/12/12 06:55:30;;;;;;;21.30;3.13;;;;;;;;;;5034800;28;20466;-79
2023/12/12 06:57:57;;;;;;;23.23;2.80;;;;;;;;;;5027196;28;20262;-79
2023/12/12 07:00:24;;;;;;;14.82;2.15;;;;;;;;;;5027826;28;20028;-78
2023/12/12 07:02:50;;;;;;;11.93;3.42;;;;;;;;;;5011697;28;20433;-78
2023/12/12 07:05:17;;;;;;;20.85;3.10;;;;;;;;;;5016248;28;20047;-78
2023/12/12 07:07:43;;;;;;;19.60;3.35;;;;;;;;;;5020291;28;20068;-78
2023/12/12 07:10:10;;;;;;;17.63;2.92;;;;;;;;;;5029115;28;20055;-78
2023/12/12 07:12:36;;;;;;;22.88;3.75;;;;;;;;;;5035582;28;20029;-78
2023/12/12 07:15:02;;;;;;;22.80;3.08;;;;;;;;;;5030954;28;20039;-79
2023/12/12 07:17:29;;;;;;;22.20;3.17;;;;;;;;;;5032295;28;20025;-78
2023/12/12 07:19:55;;;;;;;18.33;3.60;;;;;;;;;;5032017;28;20041;-78
2023/12/12 07:22:21;;;;;;;18.23;2.88;;;;;;;;;;5033967;28;20531;-78
2023/12/12 07:24:47;;;;;;;19.42;3.03;;;;;;;;;;5018806;28;20171;-78
2023/12/12 07:27:13;;;;;;;22.25;4.28;;;;;;;;;;5030076;28;20055;-78
2023/12/12 07:29:39;;;;;;;20.58;3.45;;;;;;;;;;5024160;28;20300;-78
2023/12/12 07:32:06;;;;;;;16.30;3.63;;;;;;;;;;5026933;28;20060;-78
2023/12/12 07:34:32;;;;;;;22.38;3.63;;;;;;;;;;5021336;28;20381;-78
2023/12/12 07:36:58;;;;;;;16.38;3.40;;;;;;;;;;5020878;28;20033;-78
2023/12/12 07:39:24;;;;;;;17.85;2.95;;;;;;;;;;5028131;28;20388;-78
2023/12/12 07:41:50;;;;;;;17.42;3.80;;;;;;;;;;5027499;28;20803;-79
2023/12/12 07:44:16;;;;;;;17.95;3.25;;;;;;;;;;4997174;28;20047;-78
2023/12/12 07:46:43;;;;;;;20.48;4.97;;;;;;;;;;5020969;28;20040;-84
2023/12/12 07:49:09;;;;;;;19.75;3.97;;;;;;;;;;5018801;28;20252;-79
2023/12/12 07:51:35;;;;;;;17.40;3.63;;;;;;;;;;5024612;28;20083;-78
2023/12/12 07:54:03;;;;;;;21.63;4.82;;;;;;;;;;5021261;28;20079;-78
2023/12/12 07:56:29;;;;;;;26.77;5.47;;;;;;;;;;5025224;28;20032;-79
2023/12/12 07:58:55;;;;;;;17.30;4.55;;;;;;;;;;5023000;28;20312;-78
2023/12/12 08:01:21;;;;;;;15.32;3.92;;;;;;;;;;5022680;28;20039;-79
2023/12/12 08:03:47;;;;;;;26.63;4.75;;;;;;;;;;5019327;28;20045;-78
2023/12/12 08:06:13;;;;;;;12.82;4.03;;;;;;;;;;5014119;28;20364;-78
2023/12/12 08:08:40;;;;;;;21.63;4.57;;;;;;;;;;5016253;28;20038;-79
2023/12/12 08:11:12;;;;;;;21.52;5.80;;;;;;;;;;5014185;28;21039;-78
2023/12/12 08:13:38;;;;;;;28.50;7.65;;;;;;;;;;5011972;28;20684;-81
2023/12/12 08:16:04;;;;;;;27.58;7.78;;;;;;;;;;5013464;28;20354;-78
2023/12/12 08:18:30;;;;;;;20.98;4.65;;;;;;;;;;5010669;28;20229;-78
2023/12/12 08:20:56;;;;;;;25.30;4.72;;;;;;;;;;5025090;28;20076;-78
2023/12/12 08:23:22;;;;;;;20.67;6.05;;;;;;;;;;5008419;28;20037;-78
2023/12/12 08:25:49;;;;;;;26.20;4.10;;;;;;;;;;5012218;28;20036;-78
2023/12/12 08:28:15;;;;;;;24.25;6.03;;;;;;;;;;5016308;28;20036;-78
2023/12/12 08:30:41;;;;;;;16.00;2.92;;;;;;;;;;5004783;28;20588;-76
2023/12/12 08:33:07;;;;;;;19.52;3.65;;;;;;;;;;4999430;28;20206;-77
2023/12/12 08:35:33;;;;;;;24.15;5.75;;;;;;;;;;5004161;28;20417;-77
2023/12/12 08:37:59;;;;;;;17.73;3.17;;;;;;;;;;4973094;28;20234;-77
2023/12/12 08:40:25;;;;;;;14.80;3.50;;;;;;;;;;4964693;28;20846;-77
2023/12/12 08:42:51;;;;;;;23.98;5.13;;;;;;;;;;4934412;28;20888;-78
2023/12/12 08:45:17;;;;;;;15.20;2.85;;;;;;;;;;4967389;28;20210;-76
2023/12/12 08:47:43;;;;;;;16.95;3.20;;;;;;;;;;4979413;28;20245;-77
2023/12/12 08:50:10;;;;;;;21.38;4.00;;;;;;;;;;4965929;28;20889;-77
2023/12/12 08:52:36;;;;;;;17.23;2.97;;;;;;;;;;4983281;28;20282;-78
2023/12/12 08:55:03;;;;;;;20.55;4.80;;;;;;;;;;4980500;28;20524;-78
2023/12/12 08:57:29;;;;;;;22.75;3.90;;;;;;;;;;4973398;28;20287;-78
2023/12/12 08:59:55;;;;;;;19.55;4.47;;;;;;;;;;4981479;28;20998;-80
2023/12/12 09:02:21;;;;;;;23.77;4.25;;;;;;;;;;4973149;28;20752;-80
2023/12/12 09:04:48;;;;;;;23.90;4.00;;;;;;;;;;4977185;28;20516;-77
2023/12/12 09:07:14;;;;;;;22.45;3.33;;;;;;;;;;4980971;28;20262;-81
2023/12/12 09:09:40;;;;;;;21.60;4.40;;;;;;;;;;4972655;28;20124;-80
2023/12/12 09:12:08;;;;;;;23.65;4.28;;;;;;;;;;4977723;28;20274;-77
2023/12/12 09:14:34;;;;;;;25.67;4.90;;;;;;;;;;4982226;28;20340;-77
2023/12/12 09:17:00;;;;;;;26.35;4.20;;;;;;;;;;4979561;28;20451;-79
2023/12/12 09:19:26;;;;;;;24.23;4.22;;;;;;;;;;4986819;28;20462;-80
2023/12/12 09:21:54;;;;;;;24.60;5.38;;;;;;;;;;4974800;28;20364;-81
2023/12/12 09:24:20;;;;;;;26.42;4.32;;;;;;;;;;4985145;28;20711;-80
2023/12/12 09:26:46;;;;;;;23.73;4.18;;;;;;;;;;4978596;28;20453;-80
2023/12/12 09:29:12;;;;;;;27.05;5.35;;;;;;;;;;4978159;28;20157;-80
2023/12/12 09:31:38;;;;;;;26.40;4.80;;;;;;;;;;4988283;28;20095;-78
2023/12/12 09:34:05;;;;;;;28.73;4.60;;;;;;;;;;4989539;28;20390;-78
2023/12/12 09:36:32;;;;;;;28.40;6.72;;;;;;;;;;4977467;28;20020;-78
2023/12/12 09:38:58;;;;;;;25.55;4.68;;;;;;;;;;4992629;28;20143;-78
2023/12/12 09:41:24;;;;;;;31.85;5.50;;;;;;;;;;4988610;28;20344;-78
2023/12/12 09:43:51;;;;;;;34.75;6.28;;;;;;;;;;4941626;28;20099;-78
2023/12/12 09:46:19;;;;;;;30.02;4.32;;;;;;;;;;4976746;28;20442;-78
2023/12/12 09:48:47;;;;;;;20.17;4.75;;;;;;;;;;4990324;28;20555;-78
2023/12/12 09:51:15;;;;;;;24.90;5.38;;;;;;;;;;4981151;28;20431;-80
2023/12/12 09:53:46;;;;;;;30.88;5.43;;;;;;;;;;4978103;28;20300;-78
2023/12/12 09:56:12;;;;;;;;;;;;;;;;;;4981032;28;20633;-80
2023/12/12 09:58:38;;;;;;;31.13;5.13;;;;;;;;;;4986113;28;19920;-81
2023/12/12 10:01:05;;;;;;;26.92;5.13;;;;;;;;;;4985854;28;20064;-81
2023/12/12 10:03:32;;;;;;;27.65;4.78;;;;;;;;;;4977709;28;20040;-78
2023/12/12 10:06:01;;;;;;;39.97;6.57;;;;;;;;;;4969911;28;20935;-78
2023/12/12 10:08:28;;;;;;;26.25;4.38;;;;;;;;;;4965584;28;20067;-78
2023/12/12 10:10:54;;;;;;;26.10;4.75;;;;;;;;;;4972705;28;20535;-79
2023/12/12 10:13:20;;;;;;;25.83;4.13;;;;;;;;;;4995043;28;20277;-79
2023/12/12 10:15:47;;;;;;;23.90;3.97;;;;;;;;;;4978274;28;20040;-79
2023/12/12 10:18:13;;;;;;;27.30;4.88;;;;;;;;;;4992414;28;20330;-79
2023/12/12 10:20:40;;;;;;;26.83;5.40;;;;;;;;;;4996071;28;20516;-79
2023/12/12 10:23:06;;;;;;;28.25;4.65;;;;;;;;;;4994272;28;20037;-79
2023/12/12 10:25:34;;;;;;;24.20;4.53;;;;;;;;;;4976359;28;20385;-79
2023/12/12 10:28:01;;;;;;;27.88;5.72;;;;;;;;;;4973910;28;20520;-79
2023/12/12 10:30:27;;;;;;;27.42;4.53;;;;;;;;;;4972437;28;20364;-79
2023/12/12 10:32:54;;;;;;;25.88;5.95;;;;;;;;;;4984530;28;20373;-79
2023/12/12 10:35:21;;;;;;;21.73;3.83;;;;;;;;;;4980765;28;20759;-79
2023/12/12 10:37:48;;;;;;;24.20;5.10;;;;;;;;;;4989944;28;20056;-79
2023/12/12 10:40:15;;;;;;;25.33;4.30;;;;;;;;;;4994805;28;20029;-79
2023/12/12 10:42:42;;;;;;;26.95;5.50;;;;;;;;;;4963796;28;20381;-79
2023/12/12 10:45:11;;;;;;;21.85;4.38;;;;;;;;;;4967011;28;20636;-79
2023/12/12 10:47:40;;;;;;;29.23;4.72;;;;;;;;;;4988059;28;20190;-79
2023/12/12 10:50:07;;;;;;;27.73;5.10;;;;;;;;;;4985771;28;20032;-79
2023/12/12 10:52:33;;;;;;;26.67;6.97;;;;;;;;;;4984770;28;20931;-79
2023/12/12 10:55:00;;;;;;;21.95;4.45;;;;;;;;;;4984271;28;20044;-80
2023/12/12 10:57:26;;;;;;;11.25;3.17;;;;;;;;;;4987274;28;20398;-79
2023/12/12 10:59:53;;;;;;;25.63;4.22;;;;;;;;;;4962875;28;20037;-79
2023/12/12 11:02:19;;;;;;;16.20;3.03;;;;;;;;;;4969166;28;21036;-79
2023/12/12 11:04:46;;;;;;;11.55;2.55;;;;;;;;;;4958547;28;20032;-78
2023/12/12 11:07:12;;;;;;;17.83;4.13;;;;;;;;;;4989301;28;20159;-79
2023/12/12 11:09:38;;;;;;;19.20;3.65;;;;;;;;;;4988908;28;20075;-82
2023/12/12 11:12:05;;;;;;;14.70;1.85;;;;;;;;;;4992570;28;22096;-78
2023/12/12 11:14:32;;;;;;;11.25;1.98;;;;;;;;;;4976725;28;20056;-78
2023/12/12 11:16:59;;;;;;;17.50;3.58;;;;;;;;;;4983112;28;20035;-78
2023/12/12 11:19:26;;;;;;;22.25;3.85;;;;;;;;;;4994418;28;20117;-79
2023/12/12 11:21:52;;;;;;;21.58;3.85;;;;;;;;;;4992828;28;20070;-79
2023/12/12 11:24:20;;;;;;;22.52;3.45;;;;;;;;;;4998002;28;20029;-79
2023/12/12 11:26:47;;;;;;;21.33;3.10;;;;;;;;;;4979457;28;20029;-78
2023/12/12 11:29:15;;;;;;;19.52;3.92;;;;;;;;;;4994992;28;20830;-78
2023/12/12 11:31:57;;;;;;;24.13;4.40;;;;;;;;;;4990553;28;20040;-79
2023/12/12 11:34:24;;;;;;;18.20;3.00;;;;;;;;;;4989687;28;20036;-79
2023/12/12 11:36:51;;;;;;;22.05;3.90;;;;;;;;;;4981714;28;20237;-79
2023/12/12 11:39:29;;;;;;;15.27;3.00;;;;;;;;;;4965918;28;20861;-80
2023/12/12 11:41:56;;;;;;;16.08;2.80;;;;;;;;;;4971564;28;20421;-79
2023/12/12 11:44:22;;;;;;;18.20;3.50;;;;;;;;;;4932178;28;20537;-79
2023/12/12 11:46:48;;;;;;;22.35;3.58;;;;;;;;;;4973242;28;20414;-78
2023/12/12 11:49:18;;;;;;;19.27;2.92;;;;;;;;;;4977591;28;20502;-78
2023/12/12 11:51:46;;;;;;;26.75;3.70;;;;;;;;;;4982133;28;20525;-78
2023/12/12 11:54:21;;;;;;;16.13;2.10;;;;;;;;;;4974101;28;20044;-78
2023/12/12 11:56:47;;;;;;;11.23;1.70;;;;;;;;;;4996097;28;20291;-78
2023/12/12 11:59:13;;;;;;;17.52;1.92;;;;;;;;;;4983186;28;20285;-78
2023/12/12 12:01:39;;;;;;;15.52;3.08;;;;;;;;;;4976543;28;20332;-80
2023/12/12 12:04:06;;;;;;;20.70;3.70;;;;;;;;;;4996149;28;20286;-80
2023/12/12 12:06:32;;;;;;;25.23;3.17;;;;;;;;;;4996466;28;20328;-80
2023/12/12 12:08:58;;;;;;;11.30;3.33;;;;;;;;;;4967198;28;20045;-79
2023/12/12 12:11:24;;;;;;;23.02;4.20;;;;;;;;;;4966892;28;20526;-79
2023/12/12 12:13:50;;;;;;;20.65;3.10;;;;;;;;;;4973921;28;20704;-80
2023/12/12 12:16:17;;;;;;;25.27;5.53;;;;;;;;;;4978018;28;20369;-79
2023/12/12 12:18:43;;;;;;;34.03;4.97;;;;;;;;;;4961070;28;22388;-80
2023/12/12 12:21:09;;;;;;;30.83;6.00;;;;;;;;;;4969795;28;20064;-79
2023/12/12 12:23:37;;;;;;;32.22;4.82;;;;;;;;;;4970575;28;20071;-80
2023/12/12 12:26:03;;;;;;;32.67;5.45;;;;;;;;;;4949190;28;20138;-81
2023/12/12 12:28:33;;;;;;;24.85;5.22;;;;;;;;;;4967779;28;20547;-81
2023/12/12 12:30:59;;;;;;;28.42;4.88;;;;;;;;;;4966846;28;20430;-80
2023/12/12 12:33:33;;;;;;;39.05;6.20;;;;;;;;;;4977828;28;20461;-80
2023/12/12 12:35:59;;;;;;;33.42;5.68;;;;;;;;;;4975761;28;20053;-80
2023/12/12 12:38:26;;;;;;;18.27;3.78;;;;;;;;;;4973678;28;20148;-80
2023/12/12 12:40:52;;;;;;;19.45;3.83;;;;;;;;;;4963529;28;20911;-81
2023/12/12 12:43:19;;;;;;;39.55;7.70;;;;;;;;;;4918562;28;20235;-81
2023/12/12 12:45:45;;;;;;;27.75;5.82;;;;;;;;;;4957514;28;20059;-80
2023/12/12 12:48:12;;;;;;;37.65;6.95;;;;;;;;;;4977036;28;20315;-81
2023/12/12 12:50:41;;;;;;;46.75;9.35;;;;;;;;;;4976026;28;21097;-81
2023/12/12 12:53:07;;;;;;;34.05;5.93;;;;;;;;;;4977122;28;20148;-81
2023/12/12 12:55:33;;;;;;;36.22;5.65;;;;;;;;;;4978315;28;20025;-80
2023/12/12 12:58:00;;;;;;;42.72;6.72;;;;;;;;;;4969637;28;20685;-81
2023/12/12 13:00:26;;;;;;;36.08;6.75;;;;;;;;;;4979643;28;20985;-81
2023/12/12 13:02:52;;;;;;;28.88;5.95;;;;;;;;;;4980161;28;20083;-80
2023/12/12 13:05:18;;;;;;;35.35;6.68;;;;;;;;;;4976805;28;20230;-81
2023/12/12 13:07:45;;;;;;;30.20;5.63;;;;;;;;;;4991477;28;20422;-80
2023/12/12 13:10:13;;;;;;;34.88;5.43;;;;;;;;;;4965932;28;20317;-83
2023/12/12 13:12:39;;;;;;;25.80;4.60;;;;;;;;;;4993756;28;20383;-80
2023/12/12 13:15:07;;;;;;;16.88;3.28;;;;;;;;;;4987009;28;20282;-80
2023/12/12 13:17:33;;;;;;;16.15;2.97;;;;;;;;;;4984173;28;20037;-79
2023/12/12 13:20:00;;;;;;;17.13;2.45;;;;;;;;;;4984130;28;20574;-79
2023/12/12 13:22:27;;;;;;;18.35;3.80;;;;;;;;;;4982127;28;20337;-79
2023/12/12 13:24:54;;;;;;;26.58;3.45;;;;;;;;;;4990677;28;20067;-80
2023/12/12 13:27:20;;;;;;;24.80;3.50;;;;;;;;;;4984251;28;20246;-80
2023/12/12 13:29:46;;;;;;;19.95;3.22;;;;;;;;;;4978405;28;20787;-80
2023/12/12 13:32:12;;;;;;;20.73;3.00;;;;;;;;;;4975836;28;20337;-80
2023/12/12 13:34:38;;;;;;;18.05;2.85;;;;;;;;;;4987904;28;20362;-80
2023/12/12 13:37:04;;;;;;;24.05;3.67;;;;;;;;;;4973699;28;20141;-80
2023/12/12 13:39:31;;;;;;;23.73;3.17;;;;;;;;;;4977557;28;20456;-79
2023/12/12 13:41:57;;;;;;;21.50;2.83;;;;;;;;;;4959499;28;20325;-79
2023/12/12 13:44:23;;;;;;;22.30;4.28;;;;;;;;;;4943387;28;20139;-79
2023/12/12 13:46:49;;;;;;;19.52;3.20;;;;;;;;;;4964029;28;20301;-82
2023/12/12 13:49:15;;;;;;;30.40;4.97;;;;;;;;;;4971185;28;20464;-79
2023/12/12 13:51:41;;;;;;;19.00;4.90;;;;;;;;;;4954111;28;20054;-79
2023/12/12 13:54:08;;;;;;;28.75;3.45;;;;;;;;;;4970623;28;20985;-79
2023/12/12 13:56:34;;;;;;;24.00;3.80;;;;;;;;;;4972551;28;20017;-79
2023/12/12 13:59:00;;;;;;;18.58;3.65;;;;;;;;;;4983453;28;20149;-80
2023/12/12 14:01:27;;;;;;;21.67;3.20;;;;;;;;;;4978074;28;20147;-80
2023/12/12 14:03:54;;;;;;;19.65;2.45;;;;;;;;;;4973823;28;20505;-80
2023/12/12 14:06:20;;;;;;;11.27;1.50;;;;;;;;;;4980758;28;20024;-79
2023/12/12 14:08:46;;;;;;;12.70;2.60;;;;;;;;;;4975674;28;20272;-80
2023/12/12 14:11:13;;;;;;;22.30;4.28;;;;;;;;;;4968159;28;20093;-80
2023/12/12 14:13:39;;;;;;;22.17;4.13;;;;;;;;;;4953744;28;20049;-79
2023/12/12 14:16:05;;;;;;;25.73;4.03;;;;;;;;;;4963568;28;20625;-79
2023/12/12 14:18:31;;;;;;;24.55;4.38;;;;;;;;;;4967308;28;20572;-79
2023/12/12 14:20:57;;;;;;;24.70;4.03;;;;;;;;;;4940161;28;20028;-79
2023/12/12 14:23:24;;;;;;;25.30;4.88;;;;;;;;;;4953946;28;20425;-79
2023/12/12 14:25:50;;;;;;;21.63;3.88;;;;;;;;;;4915853;28;20037;-80